sensor_id;sensor_type;location;lat;lon;timestamp;temperature;humidity
11983;DHT22;72623;51.184;7.176;2023-11-21T00:00:37;6.50;99.90
11983;DHT22;72623;51.184;7.176;2023-11-21T00:03:04;6.30;99.90
11983;DHT22;72623;51.184;7.176;2023-11-21T00:05:32;6.20;99.90
11983;DHT22;72623;51.184;7.176;2023-11-21T00:07:58;6.20;99.90
11983;DHT22;72623;51.184;7.176;2023-11-21T00:10:25;6.10;99.90
11983;DHT22;72623;51.184;7.176;2023-11-21T00:12:52;6.10;99.90
11983;DHT22;72623;51.184;7.176;2023-11-21T00:15:20;6.00;99.90
11983;DHT22;72623;51.184;7.176;2023-11-21T00:17:47;6.00;99.90
11983;DHT22;72623;51.184;7.176;2023-11-21T00:20:13;6.00;99.90
11983;DHT22;72623;51.184;7.176;2023-11-21T00:22:40;6.10;99.90
11983;DHT22;72623;51.184;7.176;2023-11-21T00:25:07;6.20;99.90
11983;DHT22;72623;51.184;7.176;2023-11-21T00:27:35;6.50;99.90
11983;DHT22;72623;51.184;7.176;2023-11-21T00:30:03;6.60;99.90
11983;DHT22;72623;51.184;7.176;2023-11-21T00:32:31;6.60;99.90
11983;DHT22;72623;51.184;7.176;2023-11-21T00:34:57;6.50;99.90
11983;DHT22;72623;51.184;7.176;2023-11-21T00:37:24;6.60;99.90
11983;DHT22;72623;51.184;7.176;2023-11-21T00:39:51;6.70;99.90
11983;DHT22;72623;51.184;7.176;2023-11-21T00:42:18;6.60;99.90
11983;DHT22;72623;51.184;7.176;2023-11-21T00:44:44;6.60;99.90
11983;DHT22;72623;51.184;7.176;2023-11-21T00:47:11;6.70;99.90
11983;DHT22;72623;51.184;7.176;2023-11-21T00:49:38;6.80;99.90
11983;DHT22;72623;51.184;7.176;2023-11-21T00:52:05;6.70;99.90
11983;DHT22;72623;51.184;7.176;2023-11-21T00:54:32;6.70;99.90
11983;DHT22;72623;51.184;7.176;2023-11-21T00:56:59;6.70;99.90
11983;DHT22;72623;51.184;7.176;2023-11-21T00:59:25;6.90;99.90
11983;DHT22;72623;51.184;7.176;2023-11-21T01:01:52;6.80;99.90
11983;DHT22;72623;51.184;7.176;2023-11-21T01:04:19;6.70;99.90
11983;DHT22;72623;51.184;7.176;2023-11-21T01:06:46;6.60;99.90
11983;DHT22;72623;51.184;7.176;2023-11-21T01:09:12;6.60;99.90
11983;DHT22;72623;51.184;7.176;2023-11-21T01:11:39;6.60;99.90
11983;DHT22;72623;51.184;7.176;2023-11-21T01:14:08;6.50;99.90
11983;DHT22;72623;51.184;7.176;2023-11-21T01:16:36;6.70;99.90
11983;DHT22;72623;51.184;7.176;2023-11-21T01:19:02;6.70;99.90
11983;DHT22;72623;51.184;7.176;2023-11-21T01:21:29;6.80;99.90
11983;DHT22;72623;51.184;7.176;2023-11-21T01:23:56;6.60;99.90
11983;DHT22;72623;51.184;7.176;2023-11-21T01:26:23;6.50;99.90
11983;DHT22;72623;51.184;7.176;2023-11-21T01:28:50;6.40;99.90
11983;DHT22;72623;51.184;7.176;2023-11-21T01:31:16;6.60;99.90
11983;DHT22;72623;51.184;7.176;2023-11-21T01:33:43;6.60;99.90
11983;DHT22;72623;51.184;7.176;2023-11-21T01:36:10;6.60;99.90
11983;DHT22;72623;51.184;7.176;2023-11-21T01:38:37;6.60;99.90
11983;DHT22;72623;51.184;7.176;2023-11-21T01:41:04;6.60;99.90
11983;DHT22;72623;51.184;7.176;2023-11-21T01:43:31;6.80;99.90
11983;DHT22;72623;51.184;7.176;2023-11-21T01:45:59;6.80;99.90
11983;DHT22;72623;51.184;7.176;2023-11-21T01:48:27;6.90;99.90
11983;DHT22;72623;51.184;7.176;2023-11-21T01:50:54;7.10;99.90
11983;DHT22;72623;51.184;7.176;2023-11-21T01:53:21;7.10;99.90
11983;DHT22;72623;51.184;7.176;2023-11-21T01:55:47;7.30;99.90
11983;DHT22;72623;51.184;7.176;2023-11-21T01:58:14;7.30;99.90
11983;DHT22;72623;51.184;7.176;2023-11-21T02:00:41;7.30;99.90
11983;DHT22;72623;51.184;7.176;2023-11-21T02:03:09;7.20;99.90
11983;DHT22;72623;51.184;7.176;2023-11-21T02:05:36;7.30;99.90
11983;DHT22;72623;51.184;7.176;2023-11-21T02:08:03;7.30;99.90
11983;DHT22;72623;51.184;7.176;2023-11-21T02:10:31;7.20;99.90
11983;DHT22;72623;51.184;7.176;2023-11-21T02:12:57;7.20;99.90
11983;DHT22;72623;51.184;7.176;2023-11-21T02:15:25;7.00;99.90
11983;DHT22;72623;51.184;7.176;2023-11-21T02:17:54;7.00;99.90
11983;DHT22;72623;51.184;7.176;2023-11-21T02:20:24;6.90;99.90
11983;DHT22;72623;51.184;7.176;2023-11-21T02:22:53;6.80;99.90
11983;DHT22;72623;51.184;7.176;2023-11-21T02:25:26;6.80;99.90
11983;DHT22;72623;51.184;7.176;2023-11-21T02:27:58;6.70;99.90
11983;DHT22;72623;51.184;7.176;2023-11-21T02:30:25;6.80;99.90
11983;DHT22;72623;51.184;7.176;2023-11-21T02:32:53;6.80;99.90
11983;DHT22;72623;51.184;7.176;2023-11-21T02:35:22;7.00;99.90
11983;DHT22;72623;51.184;7.176;2023-11-21T02:37:49;6.90;99.90
11983;DHT22;72623;51.184;7.176;2023-11-21T02:40:16;6.90;99.90
11983;DHT22;72623;51.184;7.176;2023-11-21T02:42:47;6.90;99.90
11983;DHT22;72623;51.184;7.176;2023-11-21T02:45:15;6.90;99.90
11983;DHT22;72623;51.184;7.176;2023-11-21T02:47:43;6.90;99.90
11983;DHT22;72623;51.184;7.176;2023-11-21T02:50:10;7.10;99.90
11983;DHT22;72623;51.184;7.176;2023-11-21T02:52:37;7.20;99.90
11983;DHT22;72623;51.184;7.176;2023-11-21T02:55:05;7.30;99.90
11983;DHT22;72623;51.184;7.176;2023-11-21T02:57:32;7.40;99.90
11983;DHT22;72623;51.184;7.176;2023-11-21T02:59:59;7.50;99.90
11983;DHT22;72623;51.184;7.176;2023-11-21T03:02:26;7.40;99.90
11983;DHT22;72623;51.184;7.176;2023-11-21T03:04:52;7.20;99.90
11983;DHT22;72623;51.184;7.176;2023-11-21T03:07:19;7.30;99.90
11983;DHT22;72623;51.184;7.176;2023-11-21T03:09:47;7.30;99.90
11983;DHT22;72623;51.184;7.176;2023-11-21T03:12:13;7.30;99.90
11983;DHT22;72623;51.184;7.176;2023-11-21T03:14:41;7.20;99.90
11983;DHT22;72623;51.184;7.176;2023-11-21T03:17:07;7.30;99.90
11983;DHT22;72623;51.184;7.176;2023-11-21T03:19:34;7.30;99.90
11983;DHT22;72623;51.184;7.176;2023-11-21T03:22:01;7.30;99.90
11983;DHT22;72623;51.184;7.176;2023-11-21T03:24:27;7.30;99.90
11983;DHT22;72623;51.184;7.176;2023-11-21T03:26:54;7.30;99.90
11983;DHT22;72623;51.184;7.176;2023-11-21T03:29:21;7.40;99.90
11983;DHT22;72623;51.184;7.176;2023-11-21T03:31:48;7.50;99.90
11983;DHT22;72623;51.184;7.176;2023-11-21T03:34:23;7.40;99.90
11983;DHT22;72623;51.184;7.176;2023-11-21T03:36:50;7.40;99.90
11983;DHT22;72623;51.184;7.176;2023-11-21T03:39:16;7.50;99.90
11983;DHT22;72623;51.184;7.176;2023-11-21T03:41:43;7.50;99.90
11983;DHT22;72623;51.184;7.176;2023-11-21T03:44:10;7.50;99.90
11983;DHT22;72623;51.184;7.176;2023-11-21T03:46:37;7.50;99.90
11983;DHT22;72623;51.184;7.176;2023-11-21T03:49:03;7.50;99.90
11983;DHT22;72623;51.184;7.176;2023-11-21T03:51:30;7.60;99.90
11983;DHT22;72623;51.184;7.176;2023-11-21T03:53:56;7.70;99.90
11983;DHT22;72623;51.184;7.176;2023-11-21T03:56:23;7.70;99.90
11983;DHT22;72623;51.184;7.176;2023-11-21T03:58:50;7.60;99.90
11983;DHT22;72623;51.184;7.176;2023-11-21T04:01:22;7.50;99.90
11983;DHT22;72623;51.184;7.176;2023-11-21T04:03:50;7.60;99.90
11983;DHT22;72623;51.184;7.176;2023-11-21T04:06:17;7.50;99.90
11983;DHT22;72623;51.184;7.176;2023-11-21T04:08:44;7.50;99.90
11983;DHT22;72623;51.184;7.176;2023-11-21T04:11:11;7.40;99.90
11983;DHT22;72623;51.184;7.176;2023-11-21T04:13:39;7.50;99.90
11983;DHT22;72623;51.184;7.176;2023-11-21T04:16:07;7.50;99.90
11983;DHT22;72623;51.184;7.176;2023-11-21T04:18:37;7.40;99.90
11983;DHT22;72623;51.184;7.176;2023-11-21T04:21:12;7.50;99.90
11983;DHT22;72623;51.184;7.176;2023-11-21T04:23:38;7.60;99.90
11983;DHT22;72623;51.184;7.176;2023-11-21T04:26:05;7.60;99.90
11983;DHT22;72623;51.184;7.176;2023-11-21T04:28:32;7.60;99.90
11983;DHT22;72623;51.184;7.176;2023-11-21T04:30:59;7.50;99.90
11983;DHT22;72623;51.184;7.176;2023-11-21T04:33:25;7.60;99.90
11983;DHT22;72623;51.184;7.176;2023-11-21T04:35:52;7.80;99.90
11983;DHT22;72623;51.184;7.176;2023-11-21T04:38:18;7.60;99.90
11983;DHT22;72623;51.184;7.176;2023-11-21T04:40:45;7.50;99.90
11983;DHT22;72623;51.184;7.176;2023-11-21T04:43:12;7.50;99.90
11983;DHT22;72623;51.184;7.176;2023-11-21T04:45:38;7.50;99.90
11983;DHT22;72623;51.184;7.176;2023-11-21T04:48:07;7.40;99.90
11983;DHT22;72623;51.184;7.176;2023-11-21T04:50:34;7.40;99.90
11983;DHT22;72623;51.184;7.176;2023-11-21T04:53:00;7.50;99.90
11983;DHT22;72623;51.184;7.176;2023-11-21T04:55:27;7.50;99.90
11983;DHT22;72623;51.184;7.176;2023-11-21T04:57:54;7.40;99.90
11983;DHT22;72623;51.184;7.176;2023-11-21T05:00:21;7.40;99.90
11983;DHT22;72623;51.184;7.176;2023-11-21T05:02:47;7.40;99.90
11983;DHT22;72623;51.184;7.176;2023-11-21T05:05:15;7.40;99.90
11983;DHT22;72623;51.184;7.176;2023-11-21T05:07:41;7.40;99.90
11983;DHT22;72623;51.184;7.176;2023-11-21T05:10:08;7.30;99.90
11983;DHT22;72623;51.184;7.176;2023-11-21T05:12:37;7.30;99.90
11983;DHT22;72623;51.184;7.176;2023-11-21T05:15:06;7.20;99.90
11983;DHT22;72623;51.184;7.176;2023-11-21T05:17:35;7.20;99.90
11983;DHT22;72623;51.184;7.176;2023-11-21T05:20:02;7.30;99.90
11983;DHT22;72623;51.184;7.176;2023-11-21T05:22:34;7.40;99.90
11983;DHT22;72623;51.184;7.176;2023-11-21T05:25:01;7.30;99.90
11983;DHT22;72623;51.184;7.176;2023-11-21T05:27:36;7.30;99.90
11983;DHT22;72623;51.184;7.176;2023-11-21T05:30:04;7.20;99.90
11983;DHT22;72623;51.184;7.176;2023-11-21T05:32:32;7.20;99.90
11983;DHT22;72623;51.184;7.176;2023-11-21T05:34:59;7.30;99.90
11983;DHT22;72623;51.184;7.176;2023-11-21T05:37:26;7.30;99.90
11983;DHT22;72623;51.184;7.176;2023-11-21T05:39:53;7.30;99.90
11983;DHT22;72623;51.184;7.176;2023-11-21T05:42:22;7.40;99.90
11983;DHT22;72623;51.184;7.176;2023-11-21T05:44:49;7.30;99.90
11983;DHT22;72623;51.184;7.176;2023-11-21T05:47:15;7.20;99.90
11983;DHT22;72623;51.184;7.176;2023-11-21T05:49:42;7.10;99.90
11983;DHT22;72623;51.184;7.176;2023-11-21T05:52:10;7.00;99.90
11983;DHT22;72623;51.184;7.176;2023-11-21T05:54:37;7.00;99.90
11983;DHT22;72623;51.184;7.176;2023-11-21T05:57:04;7.10;99.90
11983;DHT22;72623;51.184;7.176;2023-11-21T05:59:30;7.10;99.90
11983;DHT22;72623;51.184;7.176;2023-11-21T06:01:57;7.20;99.90
11983;DHT22;72623;51.184;7.176;2023-11-21T06:04:24;7.40;99.90
11983;DHT22;72623;51.184;7.176;2023-11-21T06:06:52;7.40;99.90
11983;DHT22;72623;51.184;7.176;2023-11-21T06:09:19;7.40;99.90
11983;DHT22;72623;51.184;7.176;2023-11-21T06:11:46;7.40;99.90
11983;DHT22;72623;51.184;7.176;2023-11-21T06:14:12;7.40;99.90
11983;DHT22;72623;51.184;7.176;2023-11-21T06:16:40;7.40;99.90
11983;DHT22;72623;51.184;7.176;2023-11-21T06:19:07;7.40;99.90
11983;DHT22;72623;51.184;7.176;2023-11-21T06:21:33;7.40;99.90
11983;DHT22;72623;51.184;7.176;2023-11-21T06:24:00;7.30;99.90
11983;DHT22;72623;51.184;7.176;2023-11-21T06:26:27;7.30;99.90
11983;DHT22;72623;51.184;7.176;2023-11-21T06:28:54;7.30;99.90
11983;DHT22;72623;51.184;7.176;2023-11-21T06:31:21;7.30;99.90
11983;DHT22;72623;51.184;7.176;2023-11-21T06:33:48;7.20;99.90
11983;DHT22;72623;51.184;7.176;2023-11-21T06:36:17;7.30;99.90
11983;DHT22;72623;51.184;7.176;2023-11-21T06:38:43;7.40;99.90
11983;DHT22;72623;51.184;7.176;2023-11-21T06:41:11;7.50;99.90
11983;DHT22;72623;51.184;7.176;2023-11-21T06:43:40;7.50;99.90
11983;DHT22;72623;51.184;7.176;2023-11-21T06:46:07;7.50;99.90
11983;DHT22;72623;51.184;7.176;2023-11-21T06:48:34;7.30;99.90
11983;DHT22;72623;51.184;7.176;2023-11-21T06:51:00;7.30;99.90
11983;DHT22;72623;51.184;7.176;2023-11-21T06:53:27;7.30;99.90
11983;DHT22;72623;51.184;7.176;2023-11-21T06:55:53;7.40;99.90
11983;DHT22;72623;51.184;7.176;2023-11-21T06:58:20;7.40;99.90
11983;DHT22;72623;51.184;7.176;2023-11-21T07:00:47;7.40;99.90
11983;DHT22;72623;51.184;7.176;2023-11-21T07:03:15;7.40;99.90
11983;DHT22;72623;51.184;7.176;2023-11-21T07:05:45;7.50;99.90
11983;DHT22;72623;51.184;7.176;2023-11-21T07:08:11;7.40;99.90
11983;DHT22;72623;51.184;7.176;2023-11-21T07:10:38;7.50;99.90
11983;DHT22;72623;51.184;7.176;2023-11-21T07:13:04;7.50;99.90
11983;DHT22;72623;51.184;7.176;2023-11-21T07:15:34;7.60;99.90
11983;DHT22;72623;51.184;7.176;2023-11-21T07:18:00;7.50;99.90
11983;DHT22;72623;51.184;7.176;2023-11-21T07:20:27;7.50;99.90
11983;DHT22;72623;51.184;7.176;2023-11-21T07:22:55;7.50;99.90
11983;DHT22;72623;51.184;7.176;2023-11-21T07:25:23;7.60;99.90
11983;DHT22;72623;51.184;7.176;2023-11-21T07:27:49;7.60;99.90
11983;DHT22;72623;51.184;7.176;2023-11-21T07:30:16;7.60;99.90
11983;DHT22;72623;51.184;7.176;2023-11-21T07:32:43;7.70;99.90
11983;DHT22;72623;51.184;7.176;2023-11-21T07:35:11;7.80;99.90
11983;DHT22;72623;51.184;7.176;2023-11-21T07:37:37;7.90;99.90
11983;DHT22;72623;51.184;7.176;2023-11-21T07:40:03;8.00;99.90
11983;DHT22;72623;51.184;7.176;2023-11-21T07:42:30;8.00;99.90
11983;DHT22;72623;51.184;7.176;2023-11-21T07:44:58;8.00;99.90
11983;DHT22;72623;51.184;7.176;2023-11-21T07:47:25;8.00;99.90
11983;DHT22;72623;51.184;7.176;2023-11-21T07:49:53;8.00;99.90
11983;DHT22;72623;51.184;7.176;2023-11-21T07:52:21;8.20;99.90
11983;DHT22;72623;51.184;7.176;2023-11-21T07:54:49;8.10;99.90
11983;DHT22;72623;51.184;7.176;2023-11-21T07:57:16;8.00;99.90
11983;DHT22;72623;51.184;7.176;2023-11-21T07:59:43;8.00;99.90
11983;DHT22;72623;51.184;7.176;2023-11-21T08:02:10;8.00;99.90
11983;DHT22;72623;51.184;7.176;2023-11-21T08:04:36;8.10;99.90
11983;DHT22;72623;51.184;7.176;2023-11-21T08:07:03;8.20;99.90
11983;DHT22;72623;51.184;7.176;2023-11-21T08:09:30;8.20;99.90
11983;DHT22;72623;51.184;7.176;2023-11-21T08:11:56;8.20;99.90
11983;DHT22;72623;51.184;7.176;2023-11-21T08:14:23;8.30;99.90
11983;DHT22;72623;51.184;7.176;2023-11-21T08:16:51;8.20;99.90
11983;DHT22;72623;51.184;7.176;2023-11-21T08:19:17;8.20;99.90
11983;DHT22;72623;51.184;7.176;2023-11-21T08:21:44;8.20;99.90
11983;DHT22;72623;51.184;7.176;2023-11-21T08:24:11;8.30;99.90
11983;DHT22;72623;51.184;7.176;2023-11-21T08:26:37;8.50;99.90
11983;DHT22;72623;51.184;7.176;2023-11-21T08:29:04;8.80;99.90
11983;DHT22;72623;51.184;7.176;2023-11-21T08:31:32;9.10;99.90
11983;DHT22;72623;51.184;7.176;2023-11-21T08:33:59;9.50;99.90
11983;DHT22;72623;51.184;7.176;2023-11-21T08:36:28;9.70;99.90
11983;DHT22;72623;51.184;7.176;2023-11-21T08:38:56;9.80;99.90
11983;DHT22;72623;51.184;7.176;2023-11-21T08:41:23;9.60;99.90
11983;DHT22;72623;51.184;7.176;2023-11-21T08:43:50;9.20;99.90
11983;DHT22;72623;51.184;7.176;2023-11-21T08:46:18;9.30;99.90
11983;DHT22;72623;51.184;7.176;2023-11-21T08:48:45;9.30;99.90
11983;DHT22;72623;51.184;7.176;2023-11-21T08:51:11;9.40;99.90
11983;DHT22;72623;51.184;7.176;2023-11-21T08:53:39;9.30;99.90
11983;DHT22;72623;51.184;7.176;2023-11-21T08:56:06;9.10;99.90
11983;DHT22;72623;51.184;7.176;2023-11-21T08:58:34;8.90;99.90
11983;DHT22;72623;51.184;7.176;2023-11-21T09:01:02;8.90;99.90
11983;DHT22;72623;51.184;7.176;2023-11-21T09:03:29;8.90;99.90
11983;DHT22;72623;51.184;7.176;2023-11-21T09:05:57;8.90;99.90
11983;DHT22;72623;51.184;7.176;2023-11-21T09:08:26;9.00;99.90
11983;DHT22;72623;51.184;7.176;2023-11-21T09:10:53;9.20;99.90
11983;DHT22;72623;51.184;7.176;2023-11-21T09:13:20;9.10;99.90
11983;DHT22;72623;51.184;7.176;2023-11-21T09:15:47;9.10;99.90
11983;DHT22;72623;51.184;7.176;2023-11-21T09:18:15;9.10;99.90
11983;DHT22;72623;51.184;7.176;2023-11-21T09:20:42;9.20;99.90
11983;DHT22;72623;51.184;7.176;2023-11-21T09:23:09;9.30;99.90
11983;DHT22;72623;51.184;7.176;2023-11-21T09:25:36;9.40;99.90
11983;DHT22;72623;51.184;7.176;2023-11-21T09:28:04;9.40;99.90
11983;DHT22;72623;51.184;7.176;2023-11-21T09:31:06;9.40;99.90
11983;DHT22;72623;51.184;7.176;2023-11-21T09:33:34;9.30;99.90
11983;DHT22;72623;51.184;7.176;2023-11-21T09:36:01;9.30;99.90
11983;DHT22;72623;51.184;7.176;2023-11-21T09:38:30;9.30;99.90
11983;DHT22;72623;51.184;7.176;2023-11-21T09:40:57;9.40;99.90
11983;DHT22;72623;51.184;7.176;2023-11-21T09:43:25;9.50;99.90
11983;DHT22;72623;51.184;7.176;2023-11-21T09:46:00;9.60;99.90
11983;DHT22;72623;51.184;7.176;2023-11-21T09:48:30;9.60;99.90
11983;DHT22;72623;51.184;7.176;2023-11-21T09:50:59;9.70;99.90
11983;DHT22;72623;51.184;7.176;2023-11-21T09:53:27;9.70;99.90
11983;DHT22;72623;51.184;7.176;2023-11-21T09:55:56;9.60;99.90
11983;DHT22;72623;51.184;7.176;2023-11-21T09:58:27;9.70;99.90
11983;DHT22;72623;51.184;7.176;2023-11-21T10:00:55;9.60;99.90
11983;DHT22;72623;51.184;7.176;2023-11-21T10:03:21;9.80;99.90
11983;DHT22;72623;51.184;7.176;2023-11-21T10:05:50;9.90;99.90
11983;DHT22;72623;51.184;7.176;2023-11-21T10:08:20;9.90;99.90
11983;DHT22;72623;51.184;7.176;2023-11-21T10:10:51;10.00;99.90
11983;DHT22;72623;51.184;7.176;2023-11-21T10:13:19;10.00;99.90
11983;DHT22;72623;51.184;7.176;2023-11-21T10:15:51;10.00;99.90
11983;DHT22;72623;51.184;7.176;2023-11-21T10:18:19;9.80;99.90
11983;DHT22;72623;51.184;7.176;2023-11-21T10:20:47;10.00;99.90
11983;DHT22;72623;51.184;7.176;2023-11-21T10:23:21;10.10;99.90
11983;DHT22;72623;51.184;7.176;2023-11-21T10:25:50;9.90;99.90
11983;DHT22;72623;51.184;7.176;2023-11-21T10:28:17;10.10;99.90
11983;DHT22;72623;51.184;7.176;2023-11-21T10:30:44;10.00;99.90
11983;DHT22;72623;51.184;7.176;2023-11-21T10:33:11;9.80;99.90
11983;DHT22;72623;51.184;7.176;2023-11-21T10:35:48;10.00;99.90
11983;DHT22;72623;51.184;7.176;2023-11-21T10:38:19;10.10;99.90
11983;DHT22;72623;51.184;7.176;2023-11-21T10:40:50;10.10;99.90
11983;DHT22;72623;51.184;7.176;2023-11-21T10:43:17;9.90;99.90
11983;DHT22;72623;51.184;7.176;2023-11-21T10:45:44;9.80;99.90
11983;DHT22;72623;51.184;7.176;2023-11-21T10:48:13;9.80;99.90
11983;DHT22;72623;51.184;7.176;2023-11-21T10:50:42;9.60;99.90
11983;DHT22;72623;51.184;7.176;2023-11-21T10:53:09;9.90;99.90
11983;DHT22;72623;51.184;7.176;2023-11-21T10:55:37;10.00;99.90
11983;DHT22;72623;51.184;7.176;2023-11-21T10:58:04;10.20;99.90
11983;DHT22;72623;51.184;7.176;2023-11-21T11:00:34;10.50;99.90
11983;DHT22;72623;51.184;7.176;2023-11-21T11:03:01;10.50;99.90
11983;DHT22;72623;51.184;7.176;2023-11-21T11:05:29;10.70;99.90
11983;DHT22;72623;51.184;7.176;2023-11-21T11:08:05;11.20;99.90
11983;DHT22;72623;51.184;7.176;2023-11-21T11:10:32;11.20;99.90
11983;DHT22;72623;51.184;7.176;2023-11-21T11:12:59;11.40;99.90
11983;DHT22;72623;51.184;7.176;2023-11-21T11:15:27;11.40;99.90
11983;DHT22;72623;51.184;7.176;2023-11-21T11:17:54;11.50;99.90
11983;DHT22;72623;51.184;7.176;2023-11-21T11:20:24;11.50;99.90
11983;DHT22;72623;51.184;7.176;2023-11-21T11:23:13;11.10;81.40
11983;DHT22;72623;51.184;7.176;2023-11-21T11:28:29;10.90;99.90
11983;DHT22;72623;51.184;7.176;2023-11-21T11:33:59;11.20;99.90
11983;DHT22;72623;51.184;7.176;2023-11-21T11:36:48;11.00;99.90
11983;DHT22;72623;51.184;7.176;2023-11-21T11:39:43;11.20;99.90
11983;DHT22;72623;51.184;7.176;2023-11-21T11:42:14;11.40;99.90
11983;DHT22;72623;51.184;7.176;2023-11-21T11:50:07;11.70;99.90
11983;DHT22;72623;51.184;7.176;2023-11-21T11:52:42;11.80;95.40
11983;DHT22;72623;51.184;7.176;2023-11-21T11:55:11;11.60;55.10
11983;DHT22;72623;51.184;7.176;2023-11-21T11:57:40;11.80;51.90
11983;DHT22;72623;51.184;7.176;2023-11-21T12:00:08;12.00;60.30
11983;DHT22;72623;51.184;7.176;2023-11-21T12:02:38;12.20;1.00
11983;DHT22;72623;51.184;7.176;2023-11-21T12:05:12;12.20;9.80
11983;DHT22;72623;51.184;7.176;2023-11-21T12:10:17;12.30;48.20
11983;DHT22;72623;51.184;7.176;2023-11-21T12:12:52;12.20;24.00
11983;DHT22;72623;51.184;7.176;2023-11-21T12:15:22;12.10;1.90
11983;DHT22;72623;51.184;7.176;2023-11-21T12:17:49;11.70;32.00
11983;DHT22;72623;51.184;7.176;2023-11-21T12:20:19;11.60;96.00
11983;DHT22;72623;51.184;7.176;2023-11-21T12:22:51;11.40;61.50
11983;DHT22;72623;51.184;7.176;2023-11-21T12:25:28;11.30;99.90
11983;DHT22;72623;51.184;7.176;2023-11-21T12:27:57;11.80;99.90
11983;DHT22;72623;51.184;7.176;2023-11-21T12:30:27;12.30;42.10
11983;DHT22;72623;51.184;7.176;2023-11-21T12:32:56;12.70;1.00
11983;DHT22;72623;51.184;7.176;2023-11-21T12:35:31;12.80;1.00
11983;DHT22;72623;51.184;7.176;2023-11-21T12:38:00;12.60;1.00
11983;DHT22;72623;51.184;7.176;2023-11-21T12:40:28;12.50;1.00
11983;DHT22;72623;51.184;7.176;2023-11-21T12:42:57;12.50;1.00
11983;DHT22;72623;51.184;7.176;2023-11-21T12:45:26;12.20;1.00
11983;DHT22;72623;51.184;7.176;2023-11-21T12:48:05;11.90;25.00
11983;DHT22;72623;51.184;7.176;2023-11-21T12:50:35;12.00;33.70
11983;DHT22;72623;51.184;7.176;2023-11-21T12:53:04;11.80;25.90
11983;DHT22;72623;51.184;7.176;2023-11-21T12:55:32;12.00;92.30
11983;DHT22;72623;51.184;7.176;2023-11-21T12:58:03;11.80;88.60
11983;DHT22;72623;51.184;7.176;2023-11-21T13:00:44;11.50;66.40
11983;DHT22;72623;51.184;7.176;2023-11-21T13:03:13;11.60;99.90
11983;DHT22;72623;51.184;7.176;2023-11-21T13:05:43;11.70;98.00
11983;DHT22;72623;51.184;7.176;2023-11-21T13:08:12;11.60;99.90
11983;DHT22;72623;51.184;7.176;2023-11-21T13:10:40;11.40;98.50
11983;DHT22;72623;51.184;7.176;2023-11-21T13:13:11;11.10;99.90
11983;DHT22;72623;51.184;7.176;2023-11-21T13:15:48;11.00;99.90
11983;DHT22;72623;51.184;7.176;2023-11-21T13:18:15;11.00;99.90
11983;DHT22;72623;51.184;7.176;2023-11-21T13:20:43;10.60;99.90
11983;DHT22;72623;51.184;7.176;2023-11-21T13:23:11;10.40;99.90
11983;DHT22;72623;51.184;7.176;2023-11-21T13:25:38;10.30;99.90
11983;DHT22;72623;51.184;7.176;2023-11-21T13:28:06;10.40;99.90
11983;DHT22;72623;51.184;7.176;2023-11-21T13:30:33;10.20;99.90
11983;DHT22;72623;51.184;7.176;2023-11-21T13:33:03;10.20;99.90
11983;DHT22;72623;51.184;7.176;2023-11-21T13:35:32;10.00;99.90
11983;DHT22;72623;51.184;7.176;2023-11-21T13:38:11;10.10;99.90
11983;DHT22;72623;51.184;7.176;2023-11-21T13:40:39;10.00;99.90
11983;DHT22;72623;51.184;7.176;2023-11-21T13:43:12;10.00;99.90
11983;DHT22;72623;51.184;7.176;2023-11-21T13:45:40;10.10;99.90
11983;DHT22;72623;51.184;7.176;2023-11-21T13:48:08;10.00;99.90
11983;DHT22;72623;51.184;7.176;2023-11-21T13:50:41;9.90;99.90
11983;DHT22;72623;51.184;7.176;2023-11-21T13:53:14;9.90;99.90
11983;DHT22;72623;51.184;7.176;2023-11-21T13:55:47;9.80;99.90
11983;DHT22;72623;51.184;7.176;2023-11-21T13:58:15;9.70;99.90
11983;DHT22;72623;51.184;7.176;2023-11-21T14:00:47;9.70;99.90
11983;DHT22;72623;51.184;7.176;2023-11-21T14:03:22;9.70;99.90
11983;DHT22;72623;51.184;7.176;2023-11-21T14:05:50;9.60;99.90
11983;DHT22;72623;51.184;7.176;2023-11-21T14:08:20;9.60;99.90
11983;DHT22;72623;51.184;7.176;2023-11-21T14:10:49;9.60;99.90
11983;DHT22;72623;51.184;7.176;2023-11-21T14:13:21;9.50;99.90
11983;DHT22;72623;51.184;7.176;2023-11-21T14:15:49;9.60;99.90
11983;DHT22;72623;51.184;7.176;2023-11-21T14:18:17;9.50;99.90
11983;DHT22;72623;51.184;7.176;2023-11-21T14:20:52;9.50;99.90
11983;DHT22;72623;51.184;7.176;2023-11-21T14:23:19;9.50;99.90
11983;DHT22;72623;51.184;7.176;2023-11-21T14:25:46;9.30;99.90
11983;DHT22;72623;51.184;7.176;2023-11-21T14:28:13;9.40;99.90
11983;DHT22;72623;51.184;7.176;2023-11-21T14:30:40;9.20;99.90
11983;DHT22;72623;51.184;7.176;2023-11-21T14:33:08;9.20;99.90
11983;DHT22;72623;51.184;7.176;2023-11-21T14:35:37;9.10;99.90
11983;DHT22;72623;51.184;7.176;2023-11-21T14:38:03;9.00;99.90
11983;DHT22;72623;51.184;7.176;2023-11-21T14:40:32;8.90;99.90
11983;DHT22;72623;51.184;7.176;2023-11-21T14:43:01;8.90;99.90
11983;DHT22;72623;51.184;7.176;2023-11-21T14:45:31;8.90;99.90
11983;DHT22;72623;51.184;7.176;2023-11-21T14:47:57;8.90;99.90
11983;DHT22;72623;51.184;7.176;2023-11-21T14:50:34;8.80;99.90
11983;DHT22;72623;51.184;7.176;2023-11-21T14:53:18;8.80;99.90
11983;DHT22;72623;51.184;7.176;2023-11-21T14:56:06;8.80;99.90
11983;DHT22;72623;51.184;7.176;2023-11-21T14:58:33;8.80;99.90
11983;DHT22;72623;51.184;7.176;2023-11-21T15:01:00;8.80;99.90
11983;DHT22;72623;51.184;7.176;2023-11-21T15:03:27;8.80;99.90
11983;DHT22;72623;51.184;7.176;2023-11-21T15:06:13;8.70;99.90
11983;DHT22;72623;51.184;7.176;2023-11-21T15:08:53;8.50;99.90
11983;DHT22;72623;51.184;7.176;2023-11-21T15:11:45;8.60;99.90
11983;DHT22;72623;51.184;7.176;2023-11-21T15:14:13;8.50;99.90
11983;DHT22;72623;51.184;7.176;2023-11-21T15:16:46;8.40;99.90
11983;DHT22;72623;51.184;7.176;2023-11-21T15:19:16;8.40;99.90
11983;DHT22;72623;51.184;7.176;2023-11-21T15:21:49;8.40;99.90
11983;DHT22;72623;51.184;7.176;2023-11-21T15:24:16;8.40;99.90
11983;DHT22;72623;51.184;7.176;2023-11-21T15:26:43;8.40;99.90
11983;DHT22;72623;51.184;7.176;2023-11-21T15:29:10;8.30;99.90
11983;DHT22;72623;51.184;7.176;2023-11-21T15:31:38;8.30;99.90
11983;DHT22;72623;51.184;7.176;2023-11-21T15:34:09;8.30;99.90
11983;DHT22;72623;51.184;7.176;2023-11-21T15:36:36;8.30;99.90
11983;DHT22;72623;51.184;7.176;2023-11-21T15:39:03;8.30;99.90
11983;DHT22;72623;51.184;7.176;2023-11-21T15:41:30;8.30;99.90
11983;DHT22;72623;51.184;7.176;2023-11-21T15:43:57;8.30;99.90
11983;DHT22;72623;51.184;7.176;2023-11-21T15:46:24;8.20;99.90
11983;DHT22;72623;51.184;7.176;2023-11-21T15:48:50;8.20;99.90
11983;DHT22;72623;51.184;7.176;2023-11-21T15:51:20;8.10;99.90
11983;DHT22;72623;51.184;7.176;2023-11-21T15:53:46;8.10;99.90
11983;DHT22;72623;51.184;7.176;2023-11-21T15:56:13;8.10;99.90
11983;DHT22;72623;51.184;7.176;2023-11-21T15:58:40;8.10;99.90
11983;DHT22;72623;51.184;7.176;2023-11-21T16:01:11;8.10;99.90
11983;DHT22;72623;51.184;7.176;2023-11-21T16:03:39;8.10;99.90